Fowler, Michigan
Current Conditions -  °F | °C
As of 11:14 AM on Monday 22 Dec 2014 (Local Time) from KY70 Reporting Station
Clear Clear  
Wind Chill: 26°   Ceiling: Unl
Heat Index: 34°   Visibility: 7mi
Dew Point: 28°   Wind: 12mph
Humidity: 78%   Direction: 110°ESE
Pressure: 30"   Gusts: 16mph
Location:  43°N, 84.74°W
Report Text: KY70 221614Z AUTO 11010G14KT 7SM CLR 01/M02 A3000 RMK AO2 T00131022
Loading
Personal Weather Stations






























Interactive Weather Map New forecast layout! Learn more

10-Day Weather Forecast

Advertisements
Track Severe Weather on mobile